Time;durP1;ratioP1;P1;durP2;ratioP2;P2;SDS_P1;SDS_P2;PMS_P1;PMS_P2;Temp;Humidity;BMP_temperature;BMP_pressure;BME280_temperature;BME280_humidity;BME280_pressure;Samples;Min_cycle;Max_cycle;Signal;HPM_P1;HPM_P2
2022/02/08 00:00:25;;;;;;;21.73;4.57;;;7.70;99.90;;;;;;5012119;28;20281;-52
2022/02/08 00:02:54;;;;;;;18.55;3.30;;;7.70;99.90;;;;;;5011853;28;20026;-53
2022/02/08 00:05:22;;;;;;;30.98;4.72;;;7.80;99.90;;;;;;5012608;28;20108;-52
2022/02/08 00:07:51;;;;;;;17.48;3.05;;;7.80;99.90;;;;;;5011466;28;20040;-52
2022/02/08 00:10:18;;;;;;;19.90;3.63;;;7.80;99.90;;;;;;5011426;28;20276;-53
2022/02/08 00:12:44;;;;;;;18.90;4.20;;;7.80;99.90;;;;;;5012049;28;20032;-52
2022/02/08 00:15:11;;;;;;;19.88;3.47;;;7.80;99.90;;;;;;5012244;28;20475;-53
2022/02/08 00:17:37;;;;;;;14.88;2.97;;;7.80;99.90;;;;;;5011967;28;20057;-53
2022/02/08 00:20:09;;;;;;;19.60;3.85;;;7.80;99.90;;;;;;5011889;28;20018;-53
2022/02/08 00:22:36;;;;;;;15.75;3.25;;;7.80;99.90;;;;;;5012199;28;20117;-53
2022/02/08 00:25:03;;;;;;;27.60;5.20;;;7.80;99.90;;;;;;5012112;28;20022;-53
2022/02/08 00:27:29;;;;;;;24.02;3.60;;;7.80;99.90;;;;;;5011562;28;20075;-53
2022/02/08 00:29:55;;;;;;;19.33;4.00;;;7.90;99.90;;;;;;5012197;28;20049;-53
2022/02/08 00:32:20;;;;;;;16.80;4.78;;;7.90;99.90;;;;;;5011941;28;20097;-53
2022/02/08 00:34:47;;;;;;;14.45;3.70;;;7.80;99.90;;;;;;5011579;28;20038;-53
2022/02/08 00:37:13;;;;;;;22.77;4.25;;;7.90;99.90;;;;;;5011510;28;20112;-53
2022/02/08 00:39:39;;;;;;;26.02;4.35;;;7.90;99.90;;;;;;5011349;28;20026;-53
2022/02/08 00:42:08;;;;;;;20.42;4.63;;;7.90;99.90;;;;;;5011518;28;20134;-53
2022/02/08 00:44:46;;;;;;;18.65;3.97;;;7.90;99.90;;;;;;5011999;28;20033;-53
2022/02/08 00:47:28;;;;;;;17.52;4.00;;;7.90;99.90;;;;;;5011546;28;20116;-53
2022/02/08 00:49:53;;;;;;;15.88;4.65;;;8.00;99.90;;;;;;5011521;28;20056;-53
2022/02/08 00:52:19;;;;;;;17.05;4.38;;;7.90;99.90;;;;;;5011714;28;20026;-53
2022/02/08 00:54:47;;;;;;;18.27;4.53;;;7.90;99.90;;;;;;5011931;28;20033;-53
2022/02/08 00:57:13;;;;;;;20.13;4.57;;;7.90;99.90;;;;;;5012398;28;20029;-53
2022/02/08 00:59:39;;;;;;;20.90;5.63;;;7.80;99.90;;;;;;5011558;28;20165;-53
2022/02/08 01:02:06;;;;;;;21.08;4.70;;;7.80;99.90;;;;;;5011531;28;20046;-53
2022/02/08 01:04:33;;;;;;;21.35;4.43;;;7.70;99.90;;;;;;5009643;28;20030;-53
2022/02/08 01:07:00;;;;;;;25.55;4.70;;;7.60;99.90;;;;;;5011720;28;20022;-53
2022/02/08 01:09:48;;;;;;;26.17;5.25;;;7.50;99.90;;;;;;5011483;28;20472;-53
2022/02/08 01:12:15;;;;;;;23.17;5.35;;;7.40;99.90;;;;;;5010801;28;20095;-53
2022/02/08 01:14:43;;;;;;;29.52;5.75;;;7.40;99.90;;;;;;5011940;28;20097;-53
2022/02/08 01:17:10;;;;;;;28.20;6.03;;;7.30;99.90;;;;;;5015004;28;20041;-53
2022/02/08 01:19:44;;;;;;;26.30;5.60;;;7.30;99.90;;;;;;5014495;28;20045;-53
2022/02/08 01:22:10;;;;;;;22.25;4.68;;;7.30;99.90;;;;;;5014361;28;20048;-53
2022/02/08 01:24:35;;;;;;;29.67;5.90;;;7.30;99.90;;;;;;5015257;28;20081;-53
2022/02/08 01:27:06;;;;;;;30.42;6.32;;;7.30;99.90;;;;;;5014808;28;20022;-53
2022/02/08 01:32:13;;;;;;;25.33;5.13;;;7.20;99.90;;;;;;5014883;28;20029;-53
2022/02/08 01:35:21;;;;;;;17.15;4.53;;;7.30;99.90;;;;;;5013646;28;20064;-53
2022/02/08 01:37:44;;;;;;;34.55;5.93;;;7.30;99.90;;;;;;5013710;28;20572;-53
2022/02/08 01:40:26;;;;;;;23.50;4.88;;;7.30;99.90;;;;;;5014264;28;20402;-53
2022/02/08 01:50:31;;;;;;;25.85;5.97;;;7.30;99.90;;;;;;5013929;28;20044;-53
2022/02/08 01:52:57;;;;;;;19.85;4.68;;;7.30;99.90;;;;;;5014074;28;20045;-53
2022/02/08 01:55:23;;;;;;;21.27;4.80;;;7.30;99.90;;;;;;5013824;28;20531;-53
2022/02/08 01:57:49;;;;;;;22.27;5.45;;;7.40;99.90;;;;;;5013888;28;20090;-53
2022/02/08 02:00:18;;;;;;;22.45;4.72;;;7.40;99.90;;;;;;5014917;28;20571;-53
2022/02/08 02:02:44;;;;;;;20.35;5.13;;;7.40;99.90;;;;;;5014430;28;20057;-53
2022/02/08 02:05:09;;;;;;;22.58;5.68;;;7.50;99.90;;;;;;5013185;28;20483;-53
2022/02/08 02:07:36;;;;;;;22.33;5.72;;;7.50;99.90;;;;;;5013426;28;20395;-53
2022/02/08 02:10:04;;;;;;;25.08;5.93;;;7.50;99.90;;;;;;5013174;28;20110;-53
2022/02/08 02:12:29;;;;;;;25.77;5.43;;;7.50;99.90;;;;;;5012918;28;20018;-53
2022/02/08 02:14:59;;;;;;;28.67;8.27;;;7.50;99.90;;;;;;5013210;28;20072;-53
2022/02/08 02:17:24;;;;;;;22.23;5.85;;;7.60;99.90;;;;;;5013315;28;20109;-53
2022/02/08 02:19:50;;;;;;;31.48;8.18;;;7.60;99.90;;;;;;5013041;28;20555;-52
2022/02/08 02:22:17;;;;;;;23.38;6.90;;;7.60;99.90;;;;;;5013041;28;20494;-53
2022/02/08 02:24:42;;;;;;;24.75;7.50;;;7.60;99.90;;;;;;5013100;28;20021;-53
2022/02/08 02:27:10;;;;;;;23.27;7.25;;;7.60;99.90;;;;;;5012835;28;20530;-53
2022/02/08 02:29:36;;;;;;;25.70;7.20;;;7.60;99.90;;;;;;5012401;28;20518;-53
2022/02/08 02:32:03;;;;;;;29.00;7.68;;;7.60;99.90;;;;;;5012872;28;20022;-53
2022/02/08 02:34:28;;;;;;;29.77;8.68;;;7.70;99.90;;;;;;5012943;28;20036;-53
2022/02/08 02:36:55;;;;;;;22.73;7.45;;;7.70;99.90;;;;;;5012758;28;20395;-53
2022/02/08 02:39:25;;;;;;;22.08;8.10;;;7.70;99.90;;;;;;5012889;28;20022;-53
2022/02/08 02:41:52;;;;;;;29.75;9.65;;;7.70;99.90;;;;;;5012167;28;20037;-53
2022/02/08 02:44:21;;;;;;;25.33;8.88;;;7.80;99.90;;;;;;5012796;28;20026;-53
2022/02/08 02:46:47;;;;;;;31.67;8.43;;;7.80;99.90;;;;;;5012646;28;20137;-53
2022/02/08 02:49:13;;;;;;;23.95;8.55;;;7.80;99.90;;;;;;5012594;28;20021;-53
2022/02/08 02:51:39;;;;;;;24.67;8.93;;;7.80;99.90;;;;;;5013305;28;20399;-52
2022/02/08 02:54:14;;;;;;;26.92;9.77;;;7.80;99.90;;;;;;5013269;28;20028;-52
2022/02/08 02:56:40;;;;;;;27.58;10.65;;;7.80;99.90;;;;;;5013389;28;20034;-52
2022/02/08 02:59:06;;;;;;;32.17;11.20;;;7.80;99.90;;;;;;5012546;28;20029;-52
2022/02/08 03:20:04;;;;;;;34.08;12.60;;;7.90;99.90;;;;;;5012756;28;20494;-52
2022/02/08 03:22:30;;;;;;;29.73;12.70;;;7.90;99.90;;;;;;5012544;28;20029;-53
2022/02/08 03:24:56;;;;;;;34.35;12.82;;;7.90;99.90;;;;;;5013410;28;20057;-52
2022/02/08 03:27:21;;;;;;;33.53;13.63;;;7.80;99.90;;;;;;5011356;28;20030;-52
2022/02/08 03:29:47;;;;;;;32.88;12.25;;;7.80;99.90;;;;;;5010541;28;20053;-52
2022/02/08 03:32:14;;;;;;;32.90;13.85;;;7.80;99.90;;;;;;5012313;28;20057;-52
2022/02/08 03:34:40;;;;;;;37.08;14.30;;;7.80;99.90;;;;;;5011364;28;20033;-52
2022/02/08 03:37:06;;;;;;;34.00;12.95;;;7.80;99.90;;;;;;5012565;28;20395;-52
2022/02/08 03:39:37;;;;;;;28.33;13.90;;;7.80;99.90;;;;;;5012371;28;20107;-52
2022/02/08 03:42:08;;;;;;;33.38;14.15;;;7.80;99.90;;;;;;5010999;28;20542;-52
2022/02/08 03:44:34;;;;;;;33.42;14.40;;;7.80;99.90;;;;;;5012511;28;20376;-53
2022/02/08 03:47:05;;;;;;;24.65;13.13;;;7.80;99.90;;;;;;5011433;28;20033;-52
2022/02/08 03:49:31;;;;;;;31.60;13.60;;;7.90;99.90;;;;;;5010324;28;20030;-52
2022/02/08 03:52:00;;;;;;;30.58;13.38;;;7.90;99.90;;;;;;5010915;28;20402;-53
2022/02/08 03:54:26;;;;;;;33.97;15.55;;;7.90;99.90;;;;;;5011559;28;20037;-52
2022/02/08 03:56:52;;;;;;;32.92;16.00;;;7.90;99.90;;;;;;5011850;28;20422;-52
2022/02/08 03:59:18;;;;;;;33.45;15.55;;;8.00;99.90;;;;;;5012052;28;20034;-53
2022/02/08 04:07:22;;;;;;;30.42;13.63;;;7.90;99.90;;;;;;5012315;28;20053;-52
2022/02/08 04:09:50;;;;;;;31.38;16.70;;;8.00;99.90;;;;;;5011963;28;20105;-52
2022/02/08 04:12:22;;;;;;;32.33;14.00;;;8.00;99.90;;;;;;5012138;28;20018;-52
2022/02/08 04:15:13;;;;;;;;;;;8.10;99.90;;;;;;5012481;28;20113;-52
2022/02/08 04:39:00;;;;;;;13.05;7.30;;;8.50;99.90;;;;;;5011766;28;20026;-52
2022/02/08 04:42:15;;;;;;;16.17;7.72;;;8.50;99.90;;;;;;5012094;28;20037;-53
2022/02/08 04:46:59;;;;;;;12.98;7.22;;;8.60;99.90;;;;;;5011935;28;20033;-53
2022/02/08 04:49:24;;;;;;;13.90;7.60;;;8.60;99.90;;;;;;5012574;28;20030;-53
2022/02/08 04:51:55;;;;;;;15.23;7.65;;;8.60;99.90;;;;;;5016015;28;20504;-53
2022/02/08 04:54:40;;;;;;;15.35;6.88;;;8.60;99.90;;;;;;5014490;28;20022;-53
2022/02/08 05:26:49;;;;;;;14.55;7.38;;;8.70;99.90;;;;;;5015703;28;20022;-53
2022/02/08 05:48:27;;;;;;;8.43;5.72;;;8.90;99.90;;;;;;5014254;28;20029;-53
2022/02/08 05:51:56;;;;;;;9.30;5.32;;;8.90;99.90;;;;;;5013576;28;20034;-53
2022/02/08 05:53:43;;;;;;;11.85;6.35;;;9.00;99.90;;;;;;5008313;28;20037;-52
2022/02/08 05:56:15;;;;;;;12.48;6.43;;;8.90;99.90;;;;;;5013547;28;20548;-53
2022/02/08 05:58:43;;;;;;;12.80;6.18;;;8.90;99.90;;;;;;5013973;28;20088;-53
2022/02/08 06:01:10;;;;;;;12.70;6.10;;;8.90;99.90;;;;;;5013749;28;20053;-53
2022/02/08 06:03:35;;;;;;;10.85;5.65;;;8.90;99.90;;;;;;5012560;28;20096;-53
2022/02/08 06:06:01;;;;;;;8.75;5.35;;;8.90;99.90;;;;;;5014120;28;20033;-53
2022/02/08 06:08:27;;;;;;;10.27;5.65;;;9.00;99.90;;;;;;5013786;28;20551;-53
2022/02/08 06:11:00;;;;;;;10.70;5.75;;;9.00;99.90;;;;;;5013876;28;20113;-53
2022/02/08 06:13:26;;;;;;;11.27;4.95;;;9.00;99.90;;;;;;5014122;28;20026;-53
2022/02/08 06:16:00;;;;;;;11.52;5.43;;;9.10;99.90;;;;;;5013733;28;20057;-53
2022/02/08 06:18:28;;;;;;;9.63;4.60;;;9.00;99.90;;;;;;5013969;28;20046;-53
2022/02/08 06:20:53;;;;;;;9.60;4.65;;;9.00;99.90;;;;;;5013796;28;20397;-53
2022/02/08 06:23:19;;;;;;;8.13;4.35;;;9.00;99.90;;;;;;5013553;28;20018;-53
2022/02/08 06:25:45;;;;;;;6.75;4.13;;;9.10;99.90;;;;;;5013980;28;20026;-53
2022/02/08 06:28:12;;;;;;;7.20;4.28;;;9.00;99.90;;;;;;5013849;28;20026;-53
2022/02/08 06:30:38;;;;;;;11.50;4.55;;;9.00;99.90;;;;;;5013744;28;20054;-53
2022/02/08 06:33:05;;;;;;;9.30;3.90;;;9.00;99.90;;;;;;5013647;28;20041;-53
2022/02/08 06:35:33;;;;;;;9.50;4.00;;;9.00;99.90;;;;;;5013206;28;20368;-54
2022/02/08 06:37:59;;;;;;;10.88;3.47;;;9.10;99.90;;;;;;5013614;28;20022;-53
2022/02/08 06:40:26;;;;;;;7.70;3.97;;;9.10;99.90;;;;;;5013433;28;20029;-53
2022/02/08 06:42:51;;;;;;;7.28;3.05;;;9.10;99.90;;;;;;5017254;28;20022;-53
2022/02/08 06:45:17;;;;;;;7.55;3.25;;;9.10;99.90;;;;;;5025694;28;20031;-53
2022/02/08 06:47:49;;;;;;;5.50;2.90;;;9.10;99.90;;;;;;5032370;28;20056;-52
2022/02/08 06:50:15;;;;;;;6.45;3.00;;;9.10;99.90;;;;;;5015043;28;20026;-52
2022/02/08 06:52:41;;;;;;;7.97;3.42;;;9.10;99.90;;;;;;5020421;28;20033;-52
2022/02/08 06:55:08;;;;;;;7.63;2.38;;;9.10;99.90;;;;;;5014171;28;20030;-52
2022/02/08 06:57:48;;;;;;;6.90;2.20;;;9.10;99.90;;;;;;5021560;28;20032;-52
2022/02/08 07:00:17;;;;;;;5.80;2.03;;;9.10;99.90;;;;;;5013370;28;20037;-52
2022/02/08 07:02:43;;;;;;;6.57;2.35;;;9.20;99.90;;;;;;5026843;28;20033;-52
2022/02/08 07:05:08;;;;;;;5.78;2.50;;;9.30;99.90;;;;;;5027481;28;20025;-53
2022/02/08 07:07:34;;;;;;;7.97;2.45;;;9.30;99.90;;;;;;5032473;28;20124;-52
2022/02/08 07:10:00;;;;;;;9.73;2.95;;;9.30;99.90;;;;;;5019163;28;20031;-52
2022/02/08 07:12:25;;;;;;;5.65;2.03;;;9.30;99.90;;;;;;5017301;28;20032;-52
2022/02/08 07:14:51;;;;;;;7.55;2.10;;;9.30;99.90;;;;;;5020341;28;20038;-53
2022/02/08 07:17:16;;;;;;;8.15;2.22;;;9.30;99.90;;;;;;5013421;28;20815;-52
2022/02/08 07:19:42;;;;;;;7.75;1.75;;;9.40;99.90;;;;;;5013637;28;20164;-53
2022/02/08 07:22:08;;;;;;;6.35;1.83;;;9.40;99.90;;;;;;5014069;28;20043;-52
2022/02/08 07:24:33;;;;;;;6.07;1.60;;;9.40;99.90;;;;;;5007526;28;20083;-53
2022/02/08 07:26:59;;;;;;;10.10;1.83;;;9.40;99.90;;;;;;5015674;28;20411;-53
2022/02/08 07:29:27;;;;;;;8.13;1.58;;;9.50;99.90;;;;;;5019321;28;20399;-53
2022/02/08 07:31:57;;;;;;;5.95;1.70;;;9.60;99.90;;;;;;5015233;28;20033;-54
2022/02/08 07:37:01;;;;;;;6.68;1.40;;;9.60;99.90;;;;;;5016014;28;20045;-54
2022/02/08 07:39:38;;;;;;;5.47;1.85;;;9.60;99.90;;;;;;5015020;28;20084;-53
2022/02/08 07:42:05;;;;;;;7.32;2.13;;;9.60;99.90;;;;;;5017794;28;20432;-53
2022/02/08 07:44:31;;;;;;;5.20;1.80;;;9.60;99.90;;;;;;5013662;28;20044;-53
2022/02/08 07:46:56;;;;;;;8.07;1.58;;;9.50;99.90;;;;;;5016018;28;20529;-53
2022/02/08 07:49:22;;;;;;;8.65;1.50;;;9.60;99.90;;;;;;5014348;28;20034;-53
2022/02/08 07:51:48;;;;;;;5.72;1.77;;;9.60;99.90;;;;;;5018624;28;20553;-54
2022/02/08 07:54:14;;;;;;;8.07;2.10;;;9.60;99.90;;;;;;5013266;28;20064;-54
2022/02/08 07:56:39;;;;;;;7.35;2.05;;;9.70;99.90;;;;;;5015963;28;20022;-54
2022/02/08 07:59:05;;;;;;;7.78;1.73;;;9.60;99.90;;;;;;5020580;28;20100;-53
2022/02/08 08:01:31;;;;;;;8.07;1.55;;;9.60;99.90;;;;;;5019882;28;20053;-54
2022/02/08 08:03:56;;;;;;;4.88;1.27;;;9.90;99.90;;;;;;5015808;28;20032;-53
2022/02/08 08:06:22;;;;;;;5.72;1.65;;;9.90;99.90;;;;;;5016185;28;20026;-53
2022/02/08 08:08:48;;;;;;;5.78;1.48;;;9.90;99.90;;;;;;5010991;28;20030;-53
2022/02/08 08:11:17;;;;;;;5.00;1.40;;;9.90;99.90;;;;;;5011879;28;21320;-53
2022/02/08 08:13:53;;;;;;;6.63;1.88;;;9.90;99.90;;;;;;5015448;28;20816;-54
2022/02/08 08:18:58;;;;;;;5.22;1.20;;;10.00;99.90;;;;;;5023325;28;20534;-54
2022/02/08 08:21:24;;;;;;;5.22;1.52;;;10.00;99.90;;;;;;5014353;28;20116;-54
2022/02/08 08:23:50;;;;;;;9.35;2.30;;;10.00;99.90;;;;;;5009835;28;20029;-54
2022/02/08 08:26:16;;;;;;;3.92;1.70;;;10.20;99.90;;;;;;5016641;28;20021;-53
2022/02/08 08:28:42;;;;;;;8.75;1.75;;;10.20;99.90;;;;;;5016634;28;20022;-54
2022/02/08 08:31:07;;;;;;;8.60;1.60;;;10.20;99.90;;;;;;5012093;28;20107;-53
2022/02/08 08:33:33;;;;;;;7.38;1.55;;;10.10;99.90;;;;;;5015454;28;20030;-53
2022/02/08 08:35:59;;;;;;;7.03;1.58;;;10.10;99.90;;;;;;5014777;28;20018;-54
2022/02/08 08:38:26;;;;;;;12.68;2.20;;;10.10;99.90;;;;;;5012633;28;20022;-54
2022/02/08 08:41:04;;;;;;;7.00;1.60;;;10.10;99.90;;;;;;5014337;28;20076;-54
2022/02/08 08:49:04;;;;;;;8.00;1.92;;;10.20;99.90;;;;;;5014728;28;20044;-53
2022/02/08 08:51:35;;;;;;;9.30;1.52;;;10.10;99.90;;;;;;5012938;28;20034;-53
2022/02/08 08:54:02;;;;;;;6.93;1.83;;;10.00;99.90;;;;;;5015491;28;20041;-53
2022/02/08 08:56:28;;;;;;;6.18;1.50;;;10.00;99.90;;;;;;5021164;28;20041;-52
2022/02/08 08:58:54;;;;;;;5.53;1.73;;;10.10;99.90;;;;;;5015250;28;20663;-52
2022/02/08 09:01:20;;;;;;;10.63;1.83;;;10.40;99.90;;;;;;5013497;28;20065;-53
2022/02/08 09:03:47;;;;;;;12.20;2.67;;;10.50;99.90;;;;;;5011431;28;20455;-53
2022/02/08 09:06:13;;;;;;;7.50;1.83;;;10.60;99.90;;;;;;5015043;28;20045;-53
2022/02/08 09:08:41;;;;;;;11.10;1.65;;;10.70;99.90;;;;;;5016168;28;20079;-53
2022/02/08 09:11:17;;;;;;;5.93;1.48;;;10.70;99.90;;;;;;5010222;28;20032;-53
2022/02/08 09:17:04;;;;;;;7.28;1.75;;;10.60;99.90;;;;;;4987991;28;21899;-53
2022/02/08 09:22:23;;;;;;;10.27;1.75;;;10.30;99.90;;;;;;5017556;28;20028;-53
2022/02/08 09:25:17;;;;;;;3.45;1.30;;;10.30;99.90;;;;;;5015381;28;20030;-53
2022/02/08 09:28:03;;;;;;;8.30;1.80;;;10.30;99.90;;;;;;5011943;28;20041;-53
2022/02/08 09:30:39;;;;;;;5.60;1.50;;;10.30;99.90;;;;;;5014714;28;20054;-53
2022/02/08 09:33:05;;;;;;;8.40;1.33;;;10.30;99.90;;;;;;5017055;28;20033;-52
2022/02/08 09:35:31;;;;;;;5.53;1.80;;;10.20;99.90;;;;;;5013144;28;20014;-52
2022/02/08 09:37:57;;;;;;;6.82;1.70;;;10.20;99.90;;;;;;5029522;28;20483;-53
2022/02/08 09:40:23;;;;;;;8.82;2.28;;;10.10;99.90;;;;;;5015991;28;20037;-53
2022/02/08 09:42:53;;;;;;;9.80;1.58;;;10.20;99.90;;;;;;5018848;28;20470;-53
2022/02/08 09:45:20;;;;;;;5.82;1.80;;;10.30;99.90;;;;;;5025364;28;20033;-53
2022/02/08 09:47:56;;;;;;;6.07;1.80;;;10.20;99.90;;;;;;5022950;28;20040;-53
2022/02/08 09:50:27;;;;;;;7.60;1.73;;;10.20;99.90;;;;;;5022963;28;20116;-53
2022/02/08 09:53:00;;;;;;;6.35;1.48;;;10.30;99.90;;;;;;5020226;28;20065;-53
2022/02/08 09:55:29;;;;;;;7.03;1.90;;;10.30;99.90;;;;;;5013951;28;20022;-53
2022/02/08 09:57:56;;;;;;;8.68;1.40;;;10.30;99.90;;;;;;5016014;28;20471;-53
2022/02/08 10:00:22;;;;;;;6.18;1.40;;;10.50;99.90;;;;;;5014778;28;20113;-53
2022/02/08 10:02:48;;;;;;;4.70;1.33;;;10.60;99.90;;;;;;5025613;28;20084;-53
2022/02/08 10:05:14;;;;;;;7.07;1.27;;;10.70;99.90;;;;;;5023523;28;20445;-53
2022/02/08 10:07:41;;;;;;;4.45;1.35;;;10.80;99.90;;;;;;5027570;28;20041;-53
2022/02/08 10:10:09;;;;;;;5.18;1.10;;;10.90;99.90;;;;;;5019166;28;20029;-53
2022/02/08 10:24:03;;;;;;;6.10;1.20;;;10.60;99.90;;;;;;5020063;28;20100;-53
2022/02/08 10:29:24;;;;;;;7.65;1.63;;;10.80;99.90;;;;;;5025390;28;20041;-53
2022/02/08 10:40:02;;;;;;;4.95;1.17;;;11.00;99.90;;;;;;5015970;28;20088;-53
2022/02/08 10:42:29;;;;;;;4.85;1.20;;;10.90;99.90;;;;;;5026048;28;20029;-53
2022/02/08 10:44:56;;;;;;;8.25;1.58;;;10.70;99.90;;;;;;5021594;28;20037;-54
2022/02/08 10:47:39;;;;;;;6.82;1.27;;;10.70;99.90;;;;;;5021356;28;20391;-53
2022/02/08 10:50:07;;;;;;;7.28;1.25;;;10.70;99.90;;;;;;5020580;28;20049;-52
2022/02/08 10:52:33;;;;;;;6.65;1.33;;;10.70;99.90;;;;;;5025059;28;20121;-52
2022/02/08 10:55:07;;;;;;;8.05;2.00;;;10.70;99.90;;;;;;5025917;28;20677;-52
2022/02/08 10:57:46;;;;;;;7.55;1.92;;;10.60;99.90;;;;;;5025725;28;20108;-53
2022/02/08 11:00:12;;;;;;;8.02;1.63;;;10.60;99.90;;;;;;5015011;28;20029;-53
2022/02/08 11:02:45;;;;;;;8.40;1.42;;;10.70;99.90;;;;;;5021789;28;21182;-53
2022/02/08 11:05:59;;;;;;;6.82;1.83;;;10.60;99.90;;;;;;5018788;28;20045;-53
2022/02/08 11:08:14;;;;;;;7.18;2.05;;;10.50;99.90;;;;;;5009120;28;20038;-53
2022/02/08 11:14:12;;;;;;;9.52;2.10;;;10.30;99.90;;;;;;5021085;28;20295;-53
2022/02/08 11:16:23;;;;;;;6.53;1.70;;;10.30;99.90;;;;;;5004656;28;20533;-53
2022/02/08 11:19:12;;;;;;;5.22;1.60;;;10.30;99.90;;;;;;5010746;28;20069;-53
2022/02/08 11:22:03;;;;;;;4.25;1.45;;;10.30;99.90;;;;;;5014666;28;20030;-53
2022/02/08 11:24:41;;;;;;;8.20;1.90;;;10.50;99.90;;;;;;5015290;28;20490;-53
2022/02/08 11:27:11;;;;;;;7.82;1.77;;;10.70;99.90;;;;;;5017354;28;20036;-54
2022/02/08 11:29:44;;;;;;;6.95;1.70;;;11.00;99.90;;;;;;5009742;28;20119;-53
2022/02/08 11:41:29;;;;;;;6.57;1.25;;;11.30;99.90;;;;;;5010457;28;20033;-53
2022/02/08 11:43:21;;;;;;;4.95;1.40;;;11.40;99.90;;;;;;5010166;28;20128;-53
2022/02/08 11:46:00;;;;;;;3.97;1.50;;;11.30;99.90;;;;;;5013160;28;20479;-52
2022/02/08 11:51:44;;;;;;;5.07;1.80;;;11.50;99.90;;;;;;5013108;28;20054;-52
2022/02/08 11:59:32;;;;;;;6.35;1.77;;;11.40;99.90;;;;;;5012148;28;20033;-52
2022/02/08 12:09:51;;;;;;;6.25;1.90;;;11.70;99.90;;;;;;5018066;28;20059;-52
2022/02/08 13:00:21;;;;;;;8.10;1.48;;;12.50;99.90;;;;;;5017227;28;20045;-52
2022/02/08 14:05:56;;;;;;;5.20;1.50;;;10.90;99.90;;;;;;5013988;28;20030;-52
2022/02/08 14:08:37;;;;;;;6.57;1.50;;;11.00;99.90;;;;;;5012242;28;20103;-53
2022/02/08 14:24:32;;;;;;;8.50;2.10;;;10.20;99.90;;;;;;5018416;28;20026;-54
2022/02/08 14:29:52;;;;;;;5.80;1.58;;;10.30;99.90;;;;;;5020760;28;20537;-53
2022/02/08 15:10:38;;;;;;;3.00;1.38;;;11.00;99.90;;;;;;5007616;28;20074;-53
2022/02/08 15:13:04;;;;;;;13.60;2.45;;;11.00;99.90;;;;;;5007626;28;20044;-54
2022/02/08 15:17:59;;;;;;;6.63;1.48;;;11.10;99.90;;;;;;5021943;28;20026;-53
2022/02/08 15:20:26;;;;;;;6.03;1.67;;;11.00;99.90;;;;;;5008001;28;20507;-53
2022/02/08 15:22:52;;;;;;;7.13;1.95;;;11.00;99.90;;;;;;5020345;28;20037;-53
2022/02/08 15:25:17;;;;;;;6.93;1.52;;;10.90;99.90;;;;;;5021476;28;20028;-53
2022/02/08 15:27:46;;;;;;;6.00;1.33;;;10.90;99.90;;;;;;5016738;28;20372;-53
2022/02/08 15:30:12;;;;;;;7.13;2.28;;;10.90;99.90;;;;;;5026099;28;20049;-54
2022/02/08 15:32:38;;;;;;;6.10;2.00;;;10.90;99.90;;;;;;5020455;28;20495;-54
2022/02/08 15:35:07;;;;;;;6.85;1.45;;;10.90;99.90;;;;;;5023325;28;20033;-53
2022/02/08 15:37:33;;;;;;;5.80;1.40;;;10.90;99.90;;;;;;5028231;28;20060;-53
2022/02/08 15:40:01;;;;;;;4.07;1.33;;;10.90;99.90;;;;;;5026755;28;20495;-53
2022/02/08 15:42:31;;;;;;;6.00;1.60;;;10.80;99.90;;;;;;5028175;28;20112;-53
2022/02/08 15:45:12;;;;;;;6.57;1.40;;;10.80;99.90;;;;;;5029116;28;20534;-54
2022/02/08 15:47:38;;;;;;;6.32;1.42;;;10.70;99.90;;;;;;5027826;28;20014;-53
2022/02/08 15:50:11;;;;;;;8.60;1.85;;;10.70;99.90;;;;;;5034125;28;20035;-53
2022/02/08 15:55:26;;;;;;;7.60;1.67;;;10.70;99.90;;;;;;5013613;28;20030;-53
2022/02/08 16:08:31;;;;;;;6.85;1.40;;;10.50;99.90;;;;;;5029142;28;20021;-53
2022/02/08 16:13:51;;;;;;;6.72;1.92;;;10.40;99.90;;;;;;5027807;28;20032;-53
2022/02/08 16:16:57;;;;;;;7.82;1.27;;;10.50;99.90;;;;;;5025058;28;20037;-53
2022/02/08 16:19:23;;;;;;;7.32;1.95;;;10.50;99.90;;;;;;5024365;28;20041;-53
2022/02/08 16:30:31;;;;;;;4.93;1.10;;;10.50;99.90;;;;;;5014914;28;20145;-53
2022/02/08 16:57:10;;;;;;;7.53;1.88;;;10.40;99.90;;;;;;5019989;28;20032;-53
2022/02/08 16:59:38;;;;;;;3.10;1.60;;;10.40;99.90;;;;;;5022600;28;20060;-53
2022/02/08 17:02:06;;;;;;;4.00;1.40;;;10.40;99.90;;;;;;5015762;28;20601;-53
2022/02/08 17:04:33;;;;;;;4.45;1.38;;;10.40;99.90;;;;;;5014696;28;20033;-53
2022/02/08 17:06:59;;;;;;;5.45;1.67;;;10.50;99.90;;;;;;5020916;28;20064;-53
2022/02/08 17:12:03;;;;;;;8.20;1.92;;;10.40;99.90;;;;;;5017876;28;20034;-53
2022/02/08 17:14:46;;;;;;;7.35;2.10;;;10.40;99.90;;;;;;5031838;28;20495;-53
2022/02/08 17:47:33;;;;;;;5.13;1.90;;;10.20;99.90;;;;;;5033313;28;20032;-53
2022/02/08 17:49:20;;;;;;;5.53;2.10;;;10.20;99.90;;;;;;5018727;28;20333;-53
2022/02/08 17:51:47;;;;;;;8.25;3.35;;;10.30;99.90;;;;;;5033053;28;20029;-53
2022/02/08 17:54:13;;;;;;;6.65;2.70;;;10.40;99.90;;;;;;5033211;28;20503;-53
2022/02/08 17:56:39;;;;;;;4.75;2.40;;;10.40;99.90;;;;;;5032188;28;20056;-53
2022/02/08 17:59:05;;;;;;;4.65;2.00;;;10.40;99.90;;;;;;5032003;28;20021;-53
2022/02/08 18:01:30;;;;;;;3.65;2.10;;;10.30;99.90;;;;;;5033163;28;20032;-53
2022/02/08 18:03:56;;;;;;;3.50;2.25;;;10.30;99.90;;;;;;5019161;28;20030;-53
2022/02/08 18:06:22;;;;;;;3.80;1.75;;;10.30;99.90;;;;;;5011385;28;20033;-52
2022/02/08 18:08:47;;;;;;;3.50;1.80;;;10.30;99.90;;;;;;5011616;28;20029;-52
2022/02/08 18:11:13;;;;;;;3.72;1.67;;;10.20;99.90;;;;;;5011812;28;20056;-52
2022/02/08 18:13:41;;;;;;;3.22;2.13;;;10.20;99.90;;;;;;5011993;28;20041;-53
2022/02/08 18:16:07;;;;;;;3.67;1.77;;;10.20;99.90;;;;;;5012347;28;20030;-53
2022/02/08 18:18:39;;;;;;;4.90;1.88;;;10.20;99.90;;;;;;5014189;28;20404;-53
2022/02/08 18:21:17;;;;;;;2.97;1.83;;;10.20;99.90;;;;;;5014542;28;20125;-53
2022/02/08 18:24:27;;;;;;;5.82;1.65;;;10.20;99.90;;;;;;5011387;28;20032;-53
2022/02/08 18:56:47;;;;;;;3.80;1.95;;;10.00;99.90;;;;;;5013202;28;20040;-54
2022/02/08 19:07:28;;;;;;;4.35;1.90;;;10.00;99.90;;;;;;5012076;28;20033;-54
2022/02/08 19:12:43;;;;;;;4.60;1.90;;;10.10;99.90;;;;;;5011931;28;20419;-54
2022/02/08 19:20:27;;;;;;;3.88;1.60;;;10.10;99.90;;;;;;5012588;28;20018;-53
2022/02/08 19:22:53;;;;;;;4.20;1.10;;;10.10;99.90;;;;;;5012021;28;20030;-53
2022/02/08 19:25:19;;;;;;;2.35;1.10;;;10.10;99.90;;;;;;5011990;28;20029;-53
2022/02/08 19:27:45;;;;;;;2.30;1.10;;;10.10;99.90;;;;;;5012142;28;20026;-53
2022/02/08 19:30:19;;;;;;;4.20;1.35;;;10.10;99.90;;;;;;5129080;27;20424;-52
2022/02/08 19:32:45;;;;;;;1.17;1.00;;;10.10;99.90;;;;;;5129468;28;20031;-52
2022/02/08 19:35:12;;;;;;;2.53;1.40;;;10.10;99.90;;;;;;5130223;28;20107;-52
2022/02/08 19:37:41;;;;;;;4.32;1.20;;;10.10;99.90;;;;;;5129415;28;20024;-52
2022/02/08 19:40:09;;;;;;;2.05;1.25;;;10.00;99.90;;;;;;5091703;27;20058;-52
2022/02/08 19:42:35;;;;;;;2.40;1.60;;;10.10;99.90;;;;;;5088165;28;20024;-52
2022/02/08 19:45:15;;;;;;;3.70;2.13;;;10.10;99.90;;;;;;5088573;28;20024;-52
2022/02/08 19:47:41;;;;;;;3.50;1.75;;;10.10;99.90;;;;;;5087939;28;20099;-52
2022/02/08 19:50:08;;;;;;;3.10;1.50;;;10.00;99.90;;;;;;5088040;28;20507;-52
2022/02/08 19:52:35;;;;;;;3.65;1.48;;;9.90;99.90;;;;;;5087844;28;20024;-52
2022/02/08 19:57:28;;;;;;;3.88;1.90;;;9.80;99.90;;;;;;5087400;28;20027;-52
2022/02/08 19:59:54;;;;;;;2.17;1.60;;;9.80;99.90;;;;;;5087187;28;20103;-52
2022/02/08 20:02:23;;;;;;;3.08;1.73;;;9.80;99.90;;;;;;5088491;28;20452;-52
2022/02/08 20:04:49;;;;;;;3.50;2.03;;;9.80;99.90;;;;;;5088598;28;20095;-52
2022/02/08 20:07:15;;;;;;;3.55;2.75;;;9.80;99.90;;;;;;5087791;28;20055;-52
2022/02/08 20:09:41;;;;;;;2.30;2.05;;;9.80;99.90;;;;;;5087731;28;20130;-52
2022/02/08 20:12:07;;;;;;;2.67;2.47;;;9.80;99.90;;;;;;5087714;28;20085;-52
2022/02/08 20:14:33;;;;;;;5.35;3.35;;;9.70;99.90;;;;;;5081974;28;20021;-52
2022/02/08 20:17:00;;;;;;;4.20;2.53;;;9.80;99.90;;;;;;5067466;28;20028;-52
2022/02/08 20:19:27;;;;;;;2.58;2.30;;;9.70;99.90;;;;;;5067663;28;20036;-52
2022/02/08 20:22:01;;;;;;;3.25;2.55;;;9.70;99.90;;;;;;5067761;28;20063;-52
2022/02/08 20:24:27;;;;;;;3.40;2.95;;;9.80;99.90;;;;;;5067010;28;20039;-53
2022/02/08 20:29:27;;;;;;;6.55;3.00;;;9.70;99.90;;;;;;5066156;28;20565;-53
2022/02/08 20:31:55;;;;;;;4.90;2.67;;;9.70;99.90;;;;;;5067267;28;20063;-53
2022/02/08 20:34:23;;;;;;;3.53;2.30;;;9.70;99.90;;;;;;5067315;28;20492;-53
2022/02/08 20:36:50;;;;;;;3.95;2.45;;;9.70;99.90;;;;;;5066001;28;20470;-53
2022/02/08 20:39:17;;;;;;;4.00;2.63;;;9.70;99.90;;;;;;5066612;28;20025;-53
2022/02/08 20:41:43;;;;;;;3.80;2.63;;;9.70;99.90;;;;;;5052871;28;20029;-53
2022/02/08 20:44:13;;;;;;;6.15;2.38;;;9.70;99.90;;;;;;5053749;28;20481;-53
2022/02/08 20:46:39;;;;;;;3.70;2.50;;;9.70;99.90;;;;;;5054358;28;20451;-53
2022/02/08 20:49:05;;;;;;;3.58;2.15;;;9.80;99.90;;;;;;5053470;28;20100;-53
2022/02/08 20:51:31;;;;;;;5.55;2.60;;;9.80;99.90;;;;;;5053190;28;20025;-53